sensor_id;sensor_type;location;lat;lon;timestamp;P1;durP1;ratioP1;P2;durP2;ratioP2
24206;SDS011;12351;52.284;9.160;2023-06-22T00:01:31;6.23;;;5.27;;
24206;SDS011;12351;52.284;9.160;2023-06-22T00:04:19;7.93;;;5.97;;
24206;SDS011;12351;52.284;9.160;2023-06-22T00:07:06;6.20;;;5.70;;
24206;SDS011;12351;52.284;9.160;2023-06-22T00:09:53;6.70;;;5.83;;
24206;SDS011;12351;52.284;9.160;2023-06-22T00:12:41;6.80;;;5.87;;
24206;SDS011;12351;52.284;9.160;2023-06-22T00:15:28;6.03;;;5.43;;
24206;SDS011;12351;52.284;9.160;2023-06-22T00:18:16;6.33;;;5.67;;
24206;SDS011;12351;52.284;9.160;2023-06-22T00:21:02;6.77;;;6.10;;
24206;SDS011;12351;52.284;9.160;2023-06-22T00:23:52;6.90;;;6.23;;
24206;SDS011;12351;52.284;9.160;2023-06-22T00:26:38;7.73;;;6.43;;
24206;SDS011;12351;52.284;9.160;2023-06-22T00:29:26;6.13;;;5.53;;
24206;SDS011;12351;52.284;9.160;2023-06-22T00:32:14;6.10;;;5.60;;
24206;SDS011;12351;52.284;9.160;2023-06-22T00:35:03;9.03;;;6.30;;
24206;SDS011;12351;52.284;9.160;2023-06-22T00:37:53;7.67;;;6.47;;
24206;SDS011;12351;52.284;9.160;2023-06-22T00:40:42;6.23;;;5.63;;
24206;SDS011;12351;52.284;9.160;2023-06-22T00:43:30;8.40;;;6.03;;
24206;SDS011;12351;52.284;9.160;2023-06-22T00:46:17;6.77;;;6.07;;
24206;SDS011;12351;52.284;9.160;2023-06-22T00:49:05;7.83;;;6.27;;
24206;SDS011;12351;52.284;9.160;2023-06-22T00:51:52;8.13;;;6.27;;
24206;SDS011;12351;52.284;9.160;2023-06-22T00:54:40;7.30;;;6.60;;
24206;SDS011;12351;52.284;9.160;2023-06-22T00:57:30;6.37;;;5.77;;
24206;SDS011;12351;52.284;9.160;2023-06-22T01:00:18;6.60;;;6.00;;
24206;SDS011;12351;52.284;9.160;2023-06-22T01:03:08;8.17;;;6.10;;
24206;SDS011;12351;52.284;9.160;2023-06-22T01:05:58;6.50;;;5.90;;
24206;SDS011;12351;52.284;9.160;2023-06-22T01:08:47;6.83;;;6.10;;
24206;SDS011;12351;52.284;9.160;2023-06-22T01:11:37;6.83;;;6.07;;
24206;SDS011;12351;52.284;9.160;2023-06-22T01:17:17;8.00;;;5.90;;
24206;SDS011;12351;52.284;9.160;2023-06-22T01:20:07;7.27;;;6.57;;
24206;SDS011;12351;52.284;9.160;2023-06-22T01:31:30;8.57;;;7.10;;
24206;SDS011;12351;52.284;9.160;2023-06-22T01:34:20;10.30;;;7.13;;
24206;SDS011;12351;52.284;9.160;2023-06-22T01:37:10;7.43;;;6.57;;
24206;SDS011;12351;52.284;9.160;2023-06-22T01:39:58;7.70;;;6.80;;
24206;SDS011;12351;52.284;9.160;2023-06-22T01:42:45;7.27;;;6.57;;
24206;SDS011;12351;52.284;9.160;2023-06-22T01:45:35;8.70;;;6.10;;
24206;SDS011;12351;52.284;9.160;2023-06-22T01:48:23;8.30;;;6.77;;
24206;SDS011;12351;52.284;9.160;2023-06-22T01:51:11;7.03;;;6.33;;
24206;SDS011;12351;52.284;9.160;2023-06-22T01:54:00;8.83;;;6.43;;
24206;SDS011;12351;52.284;9.160;2023-06-22T01:56:47;7.30;;;6.60;;
24206;SDS011;12351;52.284;9.160;2023-06-22T02:02:16;7.13;;;6.43;;
24206;SDS011;12351;52.284;9.160;2023-06-22T02:05:08;7.03;;;6.33;;
24206;SDS011;12351;52.284;9.160;2023-06-22T02:10:48;7.23;;;6.50;;
24206;SDS011;12351;52.284;9.160;2023-06-22T02:13:37;6.67;;;5.93;;
24206;SDS011;12351;52.284;9.160;2023-06-22T02:16:26;7.80;;;5.90;;
24206;SDS011;12351;52.284;9.160;2023-06-22T02:19:14;6.77;;;6.03;;
24206;SDS011;12351;52.284;9.160;2023-06-22T02:22:03;6.77;;;6.10;;
24206;SDS011;12351;52.284;9.160;2023-06-22T02:24:51;7.40;;;6.28;;
24206;SDS011;12351;52.284;9.160;2023-06-22T02:27:39;7.23;;;6.20;;
24206;SDS011;12351;52.284;9.160;2023-06-22T02:30:27;6.90;;;6.20;;
24206;SDS011;12351;52.284;9.160;2023-06-22T02:33:14;7.20;;;6.27;;
24206;SDS011;12351;52.284;9.160;2023-06-22T02:36:02;7.73;;;6.00;;
24206;SDS011;12351;52.284;9.160;2023-06-22T02:38:50;6.50;;;5.90;;
24206;SDS011;12351;52.284;9.160;2023-06-22T02:41:39;7.10;;;6.10;;
24206;SDS011;12351;52.284;9.160;2023-06-22T02:44:26;6.90;;;6.20;;
24206;SDS011;12351;52.284;9.160;2023-06-22T02:47:15;8.88;;;6.25;;
24206;SDS011;12351;52.284;9.160;2023-06-22T02:50:04;6.85;;;6.15;;
24206;SDS011;12351;52.284;9.160;2023-06-22T02:52:51;8.10;;;6.67;;
24206;SDS011;12351;52.284;9.160;2023-06-22T02:55:39;6.87;;;6.17;;
24206;SDS011;12351;52.284;9.160;2023-06-22T02:58:27;8.33;;;6.55;;
24206;SDS011;12351;52.284;9.160;2023-06-22T03:01:16;10.95;;;6.30;;
24206;SDS011;12351;52.284;9.160;2023-06-22T03:04:06;8.83;;;6.60;;
24206;SDS011;12351;52.284;9.160;2023-06-22T03:06:53;8.27;;;6.53;;
24206;SDS011;12351;52.284;9.160;2023-06-22T03:09:44;6.85;;;6.25;;
24206;SDS011;12351;52.284;9.160;2023-06-22T03:12:31;8.30;;;7.00;;
24206;SDS011;12351;52.284;9.160;2023-06-22T03:15:19;9.07;;;7.00;;
24206;SDS011;12351;52.284;9.160;2023-06-22T03:18:07;8.38;;;6.28;;
24206;SDS011;12351;52.284;9.160;2023-06-22T03:20:55;7.62;;;6.83;;
24206;SDS011;12351;52.284;9.160;2023-06-22T03:23:43;7.07;;;6.37;;
24206;SDS011;12351;52.284;9.160;2023-06-22T03:26:30;9.43;;;7.10;;
24206;SDS011;12351;52.284;9.160;2023-06-22T03:29:18;8.50;;;6.43;;
24206;SDS011;12351;52.284;9.160;2023-06-22T03:32:06;6.90;;;6.20;;
24206;SDS011;12351;52.284;9.160;2023-06-22T03:34:53;6.97;;;6.37;;
24206;SDS011;12351;52.284;9.160;2023-06-22T03:37:44;7.67;;;6.87;;
24206;SDS011;12351;52.284;9.160;2023-06-22T03:40:32;8.83;;;6.30;;
24206;SDS011;12351;52.284;9.160;2023-06-22T03:43:20;7.08;;;6.37;;
24206;SDS011;12351;52.284;9.160;2023-06-22T03:46:08;7.27;;;6.53;;
24206;SDS011;12351;52.284;9.160;2023-06-22T03:48:56;8.05;;;6.85;;
24206;SDS011;12351;52.284;9.160;2023-06-22T03:51:44;6.95;;;6.25;;
24206;SDS011;12351;52.284;9.160;2023-06-22T03:54:32;7.97;;;6.53;;
24206;SDS011;12351;52.284;9.160;2023-06-22T03:57:20;7.47;;;6.75;;
24206;SDS011;12351;52.284;9.160;2023-06-22T04:00:08;8.33;;;7.42;;
24206;SDS011;12351;52.284;9.160;2023-06-22T04:02:57;8.18;;;7.33;;
24206;SDS011;12351;52.284;9.160;2023-06-22T04:05:44;8.55;;;7.70;;
24206;SDS011;12351;52.284;9.160;2023-06-22T04:08:32;9.08;;;8.13;;
24206;SDS011;12351;52.284;9.160;2023-06-22T04:11:20;8.77;;;7.87;;
24206;SDS011;12351;52.284;9.160;2023-06-22T04:14:07;8.37;;;7.57;;
24206;SDS011;12351;52.284;9.160;2023-06-22T04:16:55;10.72;;;8.38;;
24206;SDS011;12351;52.284;9.160;2023-06-22T04:19:43;9.35;;;8.43;;
24206;SDS011;12351;52.284;9.160;2023-06-22T04:22:32;9.53;;;7.42;;
24206;SDS011;12351;52.284;9.160;2023-06-22T04:25:20;9.75;;;8.78;;
24206;SDS011;12351;52.284;9.160;2023-06-22T04:28:08;10.05;;;9.05;;
24206;SDS011;12351;52.284;9.160;2023-06-22T04:30:58;9.95;;;8.95;;
24206;SDS011;12351;52.284;9.160;2023-06-22T04:33:47;11.00;;;8.65;;
24206;SDS011;12351;52.284;9.160;2023-06-22T04:36:38;11.88;;;9.53;;
24206;SDS011;12351;52.284;9.160;2023-06-22T04:39:27;13.40;;;10.45;;
24206;SDS011;12351;52.284;9.160;2023-06-22T04:42:15;10.72;;;9.65;;
24206;SDS011;12351;52.284;9.160;2023-06-22T04:45:04;12.05;;;10.75;;
24206;SDS011;12351;52.284;9.160;2023-06-22T04:47:52;12.45;;;11.10;;
24206;SDS011;12351;52.284;9.160;2023-06-22T04:50:41;11.55;;;9.90;;
24206;SDS011;12351;52.284;9.160;2023-06-22T04:53:30;11.28;;;10.03;;
24206;SDS011;12351;52.284;9.160;2023-06-22T04:56:19;10.98;;;9.88;;
24206;SDS011;12351;52.284;9.160;2023-06-22T04:59:07;12.18;;;10.95;;
24206;SDS011;12351;52.284;9.160;2023-06-22T05:04:46;12.80;;;11.53;;
24206;SDS011;12351;52.284;9.160;2023-06-22T05:07:36;13.40;;;11.97;;
24206;SDS011;12351;52.284;9.160;2023-06-22T05:10:25;13.20;;;11.80;;
24206;SDS011;12351;52.284;9.160;2023-06-22T05:13:14;12.95;;;11.68;;
24206;SDS011;12351;52.284;9.160;2023-06-22T05:16:01;14.00;;;12.60;;
24206;SDS011;12351;52.284;9.160;2023-06-22T05:18:50;13.15;;;11.83;;
24206;SDS011;12351;52.284;9.160;2023-06-22T05:21:39;13.10;;;11.70;;
24206;SDS011;12351;52.284;9.160;2023-06-22T05:24:27;14.60;;;11.63;;
24206;SDS011;12351;52.284;9.160;2023-06-22T05:27:15;13.15;;;11.38;;
24206;SDS011;12351;52.284;9.160;2023-06-22T05:30:03;13.08;;;11.30;;
24206;SDS011;12351;52.284;9.160;2023-06-22T05:32:50;13.18;;;11.57;;
24206;SDS011;12351;52.284;9.160;2023-06-22T05:35:39;13.85;;;12.40;;
24206;SDS011;12351;52.284;9.160;2023-06-22T05:38:27;12.33;;;11.12;;
24206;SDS011;12351;52.284;9.160;2023-06-22T05:41:15;14.33;;;12.80;;
24206;SDS011;12351;52.284;9.160;2023-06-22T05:44:02;14.33;;;12.83;;
24206;SDS011;12351;52.284;9.160;2023-06-22T05:46:51;13.28;;;11.97;;
24206;SDS011;12351;52.284;9.160;2023-06-22T05:49:39;15.10;;;11.47;;
24206;SDS011;12351;52.284;9.160;2023-06-22T05:52:27;16.20;;;13.30;;
24206;SDS011;12351;52.284;9.160;2023-06-22T05:55:15;16.83;;;12.70;;
24206;SDS011;12351;52.284;9.160;2023-06-22T05:58:04;14.63;;;12.30;;
24206;SDS011;12351;52.284;9.160;2023-06-22T06:00:52;14.40;;;12.90;;
24206;SDS011;12351;52.284;9.160;2023-06-22T06:03:40;16.17;;;13.37;;
24206;SDS011;12351;52.284;9.160;2023-06-22T06:06:27;14.47;;;13.00;;
24206;SDS011;12351;52.284;9.160;2023-06-22T06:09:15;14.07;;;12.67;;
24206;SDS011;12351;52.284;9.160;2023-06-22T06:12:03;18.37;;;12.63;;
24206;SDS011;12351;52.284;9.160;2023-06-22T06:14:50;14.83;;;12.70;;
24206;SDS011;12351;52.284;9.160;2023-06-22T06:20:29;15.17;;;13.57;;
24206;SDS011;12351;52.284;9.160;2023-06-22T06:23:17;14.60;;;13.10;;
24206;SDS011;12351;52.284;9.160;2023-06-22T06:26:05;16.27;;;14.57;;
24206;SDS011;12351;52.284;9.160;2023-06-22T06:28:51;16.47;;;14.77;;
24206;SDS011;12351;52.284;9.160;2023-06-22T06:31:42;19.50;;;14.53;;
24206;SDS011;12351;52.284;9.160;2023-06-22T06:34:29;15.50;;;13.90;;
24206;SDS011;12351;52.284;9.160;2023-06-22T06:37:17;17.60;;;13.53;;
24206;SDS011;12351;52.284;9.160;2023-06-22T06:40:06;16.70;;;14.93;;
24206;SDS011;12351;52.284;9.160;2023-06-22T06:42:56;16.03;;;13.87;;
24206;SDS011;12351;52.284;9.160;2023-06-22T06:45:43;16.50;;;14.70;;
24206;SDS011;12351;52.284;9.160;2023-06-22T06:48:31;18.27;;;13.80;;
24206;SDS011;12351;52.284;9.160;2023-06-22T06:51:19;17.87;;;13.70;;
24206;SDS011;12351;52.284;9.160;2023-06-22T06:54:08;17.47;;;13.00;;
24206;SDS011;12351;52.284;9.160;2023-06-22T06:56:56;17.57;;;13.90;;
24206;SDS011;12351;52.284;9.160;2023-06-22T06:59:43;16.27;;;14.57;;
24206;SDS011;12351;52.284;9.160;2023-06-22T07:02:31;16.33;;;14.07;;
24206;SDS011;12351;52.284;9.160;2023-06-22T07:05:18;15.67;;;13.93;;
24206;SDS011;12351;52.284;9.160;2023-06-22T07:08:06;16.90;;;13.47;;
24206;SDS011;12351;52.284;9.160;2023-06-22T07:10:53;16.40;;;13.90;;
24206;SDS011;12351;52.284;9.160;2023-06-22T07:13:41;18.40;;;13.60;;
24206;SDS011;12351;52.284;9.160;2023-06-22T07:16:29;15.13;;;13.37;;
24206;SDS011;12351;52.284;9.160;2023-06-22T07:19:23;15.57;;;13.33;;
24206;SDS011;12351;52.284;9.160;2023-06-22T07:22:08;17.27;;;13.33;;
24206;SDS011;12351;52.284;9.160;2023-06-22T07:24:55;16.10;;;14.43;;
24206;SDS011;12351;52.284;9.160;2023-06-22T07:27:44;16.80;;;15.07;;
24206;SDS011;12351;52.284;9.160;2023-06-22T07:30:33;15.17;;;13.43;;
24206;SDS011;12351;52.284;9.160;2023-06-22T07:33:21;14.63;;;12.63;;
24206;SDS011;12351;52.284;9.160;2023-06-22T07:36:08;16.43;;;13.87;;
24206;SDS011;12351;52.284;9.160;2023-06-22T07:38:56;15.53;;;13.70;;
24206;SDS011;12351;52.284;9.160;2023-06-22T07:41:44;15.20;;;13.60;;
24206;SDS011;12351;52.284;9.160;2023-06-22T07:44:32;15.23;;;13.33;;
24206;SDS011;12351;52.284;9.160;2023-06-22T07:47:19;17.50;;;15.60;;
24206;SDS011;12351;52.284;9.160;2023-06-22T07:50:08;16.70;;;14.10;;
24206;SDS011;12351;52.284;9.160;2023-06-22T07:52:58;16.60;;;15.00;;
24206;SDS011;12351;52.284;9.160;2023-06-22T07:55:46;16.40;;;14.00;;
24206;SDS011;12351;52.284;9.160;2023-06-22T07:58:35;16.37;;;13.73;;
24206;SDS011;12351;52.284;9.160;2023-06-22T08:01:23;15.17;;;13.67;;
24206;SDS011;12351;52.284;9.160;2023-06-22T08:04:11;15.03;;;12.63;;
24206;SDS011;12351;52.284;9.160;2023-06-22T08:06:59;18.33;;;15.83;;
24206;SDS011;12351;52.284;9.160;2023-06-22T08:12:36;16.90;;;14.63;;
24206;SDS011;12351;52.284;9.160;2023-06-22T08:18:15;17.20;;;15.33;;
24206;SDS011;12351;52.284;9.160;2023-06-22T08:21:03;17.40;;;14.93;;
24206;SDS011;12351;52.284;9.160;2023-06-22T08:23:51;16.47;;;14.57;;
24206;SDS011;12351;52.284;9.160;2023-06-22T08:26:39;16.83;;;14.57;;
24206;SDS011;12351;52.284;9.160;2023-06-22T08:29:26;16.97;;;15.10;;
24206;SDS011;12351;52.284;9.160;2023-06-22T08:32:14;18.70;;;16.10;;
24206;SDS011;12351;52.284;9.160;2023-06-22T08:35:02;16.13;;;14.37;;
24206;SDS011;12351;52.284;9.160;2023-06-22T08:37:51;19.57;;;15.27;;
24206;SDS011;12351;52.284;9.160;2023-06-22T08:40:40;16.07;;;14.17;;
24206;SDS011;12351;52.284;9.160;2023-06-22T08:43:28;18.50;;;16.50;;
24206;SDS011;12351;52.284;9.160;2023-06-22T08:46:15;18.67;;;15.53;;
24206;SDS011;12351;52.284;9.160;2023-06-22T08:49:04;18.03;;;15.03;;
24206;SDS011;12351;52.284;9.160;2023-06-22T08:51:52;19.67;;;15.40;;
24206;SDS011;12351;52.284;9.160;2023-06-22T08:54:40;17.57;;;14.87;;
24206;SDS011;12351;52.284;9.160;2023-06-22T08:57:28;16.50;;;14.73;;
24206;SDS011;12351;52.284;9.160;2023-06-22T09:00:16;16.83;;;13.70;;
24206;SDS011;12351;52.284;9.160;2023-06-22T09:03:05;15.93;;;14.20;;
24206;SDS011;12351;52.284;9.160;2023-06-22T09:05:52;15.37;;;13.67;;
24206;SDS011;12351;52.284;9.160;2023-06-22T09:08:40;14.50;;;12.60;;
24206;SDS011;12351;52.284;9.160;2023-06-22T09:11:28;15.87;;;13.13;;
24206;SDS011;12351;52.284;9.160;2023-06-22T09:14:17;17.13;;;13.87;;
24206;SDS011;12351;52.284;9.160;2023-06-22T09:17:05;15.10;;;12.73;;
24206;SDS011;12351;52.284;9.160;2023-06-22T09:19:54;16.30;;;13.40;;
24206;SDS011;12351;52.284;9.160;2023-06-22T09:22:41;17.03;;;13.03;;
24206;SDS011;12351;52.284;9.160;2023-06-22T09:25:29;12.57;;;11.27;;
24206;SDS011;12351;52.284;9.160;2023-06-22T09:28:16;16.13;;;12.20;;
24206;SDS011;12351;52.284;9.160;2023-06-22T09:31:04;13.03;;;11.77;;
24206;SDS011;12351;52.284;9.160;2023-06-22T09:33:53;13.67;;;11.10;;
24206;SDS011;12351;52.284;9.160;2023-06-22T09:36:42;13.63;;;11.83;;
24206;SDS011;12351;52.284;9.160;2023-06-22T09:39:30;11.50;;;10.30;;
24206;SDS011;12351;52.284;9.160;2023-06-22T09:42:17;12.60;;;10.83;;
24206;SDS011;12351;52.284;9.160;2023-06-22T09:45:06;10.57;;;9.57;;
24206;SDS011;12351;52.284;9.160;2023-06-22T09:47:53;10.80;;;9.70;;
24206;SDS011;12351;52.284;9.160;2023-06-22T09:50:42;8.97;;;8.07;;
24206;SDS011;12351;52.284;9.160;2023-06-22T09:53:29;9.83;;;8.83;;
24206;SDS011;12351;52.284;9.160;2023-06-22T09:56:17;9.43;;;8.50;;
24206;SDS011;12351;52.284;9.160;2023-06-22T09:59:05;9.30;;;8.37;;
24206;SDS011;12351;52.284;9.160;2023-06-22T10:01:53;8.77;;;7.97;;
24206;SDS011;12351;52.284;9.160;2023-06-22T10:04:41;8.60;;;7.67;;
24206;SDS011;12351;52.284;9.160;2023-06-22T10:07:29;8.43;;;7.63;;
24206;SDS011;12351;52.284;9.160;2023-06-22T10:10:16;8.57;;;7.77;;
24206;SDS011;12351;52.284;9.160;2023-06-22T10:15:56;9.20;;;8.30;;
24206;SDS011;12351;52.284;9.160;2023-06-22T10:18:43;10.17;;;8.83;;
24206;SDS011;12351;52.284;9.160;2023-06-22T10:21:33;9.53;;;8.57;;
24206;SDS011;12351;52.284;9.160;2023-06-22T10:24:21;10.07;;;9.03;;
24206;SDS011;12351;52.284;9.160;2023-06-22T10:27:08;10.03;;;9.03;;
24206;SDS011;12351;52.284;9.160;2023-06-22T10:29:56;10.60;;;9.57;;
24206;SDS011;12351;52.284;9.160;2023-06-22T10:32:42;10.30;;;8.60;;
24206;SDS011;12351;52.284;9.160;2023-06-22T10:35:30;9.20;;;8.20;;
24206;SDS011;12351;52.284;9.160;2023-06-22T10:38:18;9.53;;;8.60;;
24206;SDS011;12351;52.284;9.160;2023-06-22T10:41:06;9.57;;;8.67;;
24206;SDS011;12351;52.284;9.160;2023-06-22T10:43:52;10.50;;;9.37;;
24206;SDS011;12351;52.284;9.160;2023-06-22T10:46:39;10.87;;;9.30;;
24206;SDS011;12351;52.284;9.160;2023-06-22T10:49:27;11.13;;;10.03;;
24206;SDS011;12351;52.284;9.160;2023-06-22T10:52:15;10.27;;;9.03;;
24206;SDS011;12351;52.284;9.160;2023-06-22T10:55:03;12.70;;;10.00;;
24206;SDS011;12351;52.284;9.160;2023-06-22T10:57:50;9.90;;;8.90;;
24206;SDS011;12351;52.284;9.160;2023-06-22T11:00:38;10.83;;;9.43;;
24206;SDS011;12351;52.284;9.160;2023-06-22T11:03:25;10.33;;;9.30;;
24206;SDS011;12351;52.284;9.160;2023-06-22T11:06:13;10.97;;;9.40;;
24206;SDS011;12351;52.284;9.160;2023-06-22T11:09:01;12.90;;;8.50;;
24206;SDS011;12351;52.284;9.160;2023-06-22T11:11:50;15.40;;;8.80;;
24206;SDS011;12351;52.284;9.160;2023-06-22T11:14:39;9.33;;;8.43;;
24206;SDS011;12351;52.284;9.160;2023-06-22T11:17:26;9.73;;;8.83;;
24206;SDS011;12351;52.284;9.160;2023-06-22T11:20:14;8.83;;;7.93;;
24206;SDS011;12351;52.284;9.160;2023-06-22T11:23:02;8.93;;;8.03;;
24206;SDS011;12351;52.284;9.160;2023-06-22T11:25:49;9.07;;;8.17;;
24206;SDS011;12351;52.284;9.160;2023-06-22T11:28:37;8.53;;;7.63;;
24206;SDS011;12351;52.284;9.160;2023-06-22T11:31:24;13.97;;;9.80;;
24206;SDS011;12351;52.284;9.160;2023-06-22T11:34:12;9.67;;;8.27;;
24206;SDS011;12351;52.284;9.160;2023-06-22T11:36:59;9.20;;;8.20;;
24206;SDS011;12351;52.284;9.160;2023-06-22T11:39:46;7.83;;;6.97;;
24206;SDS011;12351;52.284;9.160;2023-06-22T11:42:35;8.90;;;7.07;;
24206;SDS011;12351;52.284;9.160;2023-06-22T11:45:23;11.10;;;8.10;;
24206;SDS011;12351;52.284;9.160;2023-06-22T11:48:10;9.10;;;8.07;;
24206;SDS011;12351;52.284;9.160;2023-06-22T11:50:58;8.00;;;7.20;;
24206;SDS011;12351;52.284;9.160;2023-06-22T11:53:46;7.97;;;7.17;;
24206;SDS011;12351;52.284;9.160;2023-06-22T11:56:34;8.13;;;7.33;;
24206;SDS011;12351;52.284;9.160;2023-06-22T11:59:21;8.00;;;7.20;;
24206;SDS011;12351;52.284;9.160;2023-06-22T12:02:09;8.80;;;7.40;;
24206;SDS011;12351;52.284;9.160;2023-06-22T12:04:56;9.57;;;7.40;;
24206;SDS011;12351;52.284;9.160;2023-06-22T12:07:44;8.50;;;7.70;;
24206;SDS011;12351;52.284;9.160;2023-06-22T12:10:32;9.47;;;7.73;;
24206;SDS011;12351;52.284;9.160;2023-06-22T12:13:20;11.17;;;7.20;;
24206;SDS011;12351;52.284;9.160;2023-06-22T12:16:08;8.57;;;7.37;;
24206;SDS011;12351;52.284;9.160;2023-06-22T12:18:54;9.57;;;7.17;;
24206;SDS011;12351;52.284;9.160;2023-06-22T12:21:42;8.20;;;7.20;;
24206;SDS011;12351;52.284;9.160;2023-06-22T12:24:31;10.27;;;7.70;;
24206;SDS011;12351;52.284;9.160;2023-06-22T12:27:19;7.57;;;6.77;;
24206;SDS011;12351;52.284;9.160;2023-06-22T12:30:08;8.00;;;7.20;;
24206;SDS011;12351;52.284;9.160;2023-06-22T12:32:56;7.93;;;7.13;;
24206;SDS011;12351;52.284;9.160;2023-06-22T12:35:43;8.73;;;7.83;;
24206;SDS011;12351;52.284;9.160;2023-06-22T12:38:33;12.57;;;8.53;;
24206;SDS011;12351;52.284;9.160;2023-06-22T12:41:20;10.17;;;9.17;;
24206;SDS011;12351;52.284;9.160;2023-06-22T12:44:07;9.50;;;8.57;;
24206;SDS011;12351;52.284;9.160;2023-06-22T12:46:56;10.60;;;9.50;;
24206;SDS011;12351;52.284;9.160;2023-06-22T12:49:43;12.07;;;10.33;;
24206;SDS011;12351;52.284;9.160;2023-06-22T12:52:31;11.63;;;10.00;;
24206;SDS011;12351;52.284;9.160;2023-06-22T12:55:18;12.03;;;9.20;;
24206;SDS011;12351;52.284;9.160;2023-06-22T12:58:06;12.73;;;9.83;;
24206;SDS011;12351;52.284;9.160;2023-06-22T13:00:53;11.33;;;10.23;;
24206;SDS011;12351;52.284;9.160;2023-06-22T13:03:43;10.73;;;9.67;;
24206;SDS011;12351;52.284;9.160;2023-06-22T13:06:30;11.23;;;9.43;;
24206;SDS011;12351;52.284;9.160;2023-06-22T13:09:18;12.23;;;10.90;;
24206;SDS011;12351;52.284;9.160;2023-06-22T13:12:07;11.87;;;10.20;;
24206;SDS011;12351;52.284;9.160;2023-06-22T13:14:54;12.10;;;10.93;;
24206;SDS011;12351;52.284;9.160;2023-06-22T13:17:43;17.03;;;10.30;;
24206;SDS011;12351;52.284;9.160;2023-06-22T13:20:30;11.20;;;10.00;;
24206;SDS011;12351;52.284;9.160;2023-06-22T13:23:18;12.07;;;10.87;;
24206;SDS011;12351;52.284;9.160;2023-06-22T13:26:07;11.93;;;10.63;;
24206;SDS011;12351;52.284;9.160;2023-06-22T13:28:54;11.60;;;10.40;;
24206;SDS011;12351;52.284;9.160;2023-06-22T13:31:43;11.37;;;10.20;;
24206;SDS011;12351;52.284;9.160;2023-06-22T13:34:30;13.17;;;10.77;;
24206;SDS011;12351;52.284;9.160;2023-06-22T13:37:17;12.57;;;11.27;;
24206;SDS011;12351;52.284;9.160;2023-06-22T13:40:06;14.30;;;10.53;;
24206;SDS011;12351;52.284;9.160;2023-06-22T13:42:53;12.43;;;10.83;;
24206;SDS011;12351;52.284;9.160;2023-06-22T13:45:42;13.60;;;12.17;;
24206;SDS011;12351;52.284;9.160;2023-06-22T13:48:30;11.80;;;10.67;;
24206;SDS011;12351;52.284;9.160;2023-06-22T13:51:17;12.17;;;10.60;;
24206;SDS011;12351;52.284;9.160;2023-06-22T13:54:05;12.77;;;11.30;;
24206;SDS011;12351;52.284;9.160;2023-06-22T13:56:52;14.27;;;11.37;;
24206;SDS011;12351;52.284;9.160;2023-06-22T13:59:42;14.50;;;12.90;;
24206;SDS011;12351;52.284;9.160;2023-06-22T14:02:29;14.00;;;12.50;;
24206;SDS011;12351;52.284;9.160;2023-06-22T14:05:17;19.03;;;14.10;;
24206;SDS011;12351;52.284;9.160;2023-06-22T14:08:04;16.50;;;14.80;;
24206;SDS011;12351;52.284;9.160;2023-06-22T14:10:50;16.37;;;14.50;;
24206;SDS011;12351;52.284;9.160;2023-06-22T14:13:40;18.53;;;14.40;;
24206;SDS011;12351;52.284;9.160;2023-06-22T14:16:28;16.40;;;12.27;;
24206;SDS011;12351;52.284;9.160;2023-06-22T14:19:17;13.37;;;11.97;;
24206;SDS011;12351;52.284;9.160;2023-06-22T14:22:05;14.10;;;12.70;;
24206;SDS011;12351;52.284;9.160;2023-06-22T14:24:52;17.90;;;13.00;;
24206;SDS011;12351;52.284;9.160;2023-06-22T14:27:41;14.43;;;12.93;;
24206;SDS011;12351;52.284;9.160;2023-06-22T14:30:29;14.13;;;12.63;;
24206;SDS011;12351;52.284;9.160;2023-06-22T14:33:17;14.63;;;13.13;;
24206;SDS011;12351;52.284;9.160;2023-06-22T14:36:05;14.80;;;13.30;;
24206;SDS011;12351;52.284;9.160;2023-06-22T14:38:53;15.63;;;12.80;;
24206;SDS011;12351;52.284;9.160;2023-06-22T14:41:42;17.37;;;14.23;;
24206;SDS011;12351;52.284;9.160;2023-06-22T14:44:29;16.07;;;14.50;;
24206;SDS011;12351;52.284;9.160;2023-06-22T14:47:17;18.47;;;15.13;;
24206;SDS011;12351;52.284;9.160;2023-06-22T14:50:06;20.07;;;16.40;;
24206;SDS011;12351;52.284;9.160;2023-06-22T14:52:53;22.90;;;16.53;;
24206;SDS011;12351;52.284;9.160;2023-06-22T14:55:42;20.23;;;16.57;;
24206;SDS011;12351;52.284;9.160;2023-06-22T14:58:30;17.87;;;15.20;;
24206;SDS011;12351;52.284;9.160;2023-06-22T15:01:19;21.57;;;16.33;;
24206;SDS011;12351;52.284;9.160;2023-06-22T15:04:07;20.37;;;16.87;;
24206;SDS011;12351;52.284;9.160;2023-06-22T15:06:54;21.47;;;18.33;;
24206;SDS011;12351;52.284;9.160;2023-06-22T15:09:43;20.40;;;18.10;;
24206;SDS011;12351;52.284;9.160;2023-06-22T15:12:31;23.80;;;19.60;;
24206;SDS011;12351;52.284;9.160;2023-06-22T15:15:19;20.97;;;18.50;;
24206;SDS011;12351;52.284;9.160;2023-06-22T15:18:06;21.70;;;17.93;;
24206;SDS011;12351;52.284;9.160;2023-06-22T15:20:53;21.87;;;17.17;;
24206;SDS011;12351;52.284;9.160;2023-06-22T15:23:41;21.07;;;18.30;;
24206;SDS011;12351;52.284;9.160;2023-06-22T15:26:29;20.60;;;18.40;;
24206;SDS011;12351;52.284;9.160;2023-06-22T15:29:16;23.87;;;19.43;;
24206;SDS011;12351;52.284;9.160;2023-06-22T15:32:04;26.87;;;19.60;;
24206;SDS011;12351;52.284;9.160;2023-06-22T15:34:52;20.23;;;18.13;;
24206;SDS011;12351;52.284;9.160;2023-06-22T15:37:40;20.60;;;18.03;;
24206;SDS011;12351;52.284;9.160;2023-06-22T15:40:27;20.07;;;17.73;;
24206;SDS011;12351;52.284;9.160;2023-06-22T15:43:15;19.70;;;16.80;;
24206;SDS011;12351;52.284;9.160;2023-06-22T15:46:02;17.97;;;16.07;;
24206;SDS011;12351;52.284;9.160;2023-06-22T15:48:49;18.73;;;16.63;;
24206;SDS011;12351;52.284;9.160;2023-06-22T15:51:35;16.77;;;14.90;;
24206;SDS011;12351;52.284;9.160;2023-06-22T15:54:24;16.67;;;14.43;;
24206;SDS011;12351;52.284;9.160;2023-06-22T15:57:12;18.27;;;15.20;;
24206;SDS011;12351;52.284;9.160;2023-06-22T16:00:00;16.23;;;14.53;;
24206;SDS011;12351;52.284;9.160;2023-06-22T16:02:47;15.80;;;14.10;;
24206;SDS011;12351;52.284;9.160;2023-06-22T16:05:35;15.07;;;13.47;;
24206;SDS011;12351;52.284;9.160;2023-06-22T16:08:23;15.47;;;13.97;;
24206;SDS011;12351;52.284;9.160;2023-06-22T16:11:11;15.20;;;13.60;;
24206;SDS011;12351;52.284;9.160;2023-06-22T16:13:59;16.33;;;14.63;;
24206;SDS011;12351;52.284;9.160;2023-06-22T16:16:46;17.80;;;15.13;;
24206;SDS011;12351;52.284;9.160;2023-06-22T16:19:33;16.40;;;14.70;;
24206;SDS011;12351;52.284;9.160;2023-06-22T16:22:21;16.57;;;14.90;;
24206;SDS011;12351;52.284;9.160;2023-06-22T16:25:09;18.83;;;15.80;;
24206;SDS011;12351;52.284;9.160;2023-06-22T16:27:56;17.93;;;16.03;;
24206;SDS011;12351;52.284;9.160;2023-06-22T16:30:43;17.87;;;15.97;;
24206;SDS011;12351;52.284;9.160;2023-06-22T16:33:31;19.37;;;16.60;;
24206;SDS011;12351;52.284;9.160;2023-06-22T16:36:19;18.73;;;16.73;;
24206;SDS011;12351;52.284;9.160;2023-06-22T16:39:06;18.63;;;16.73;;
24206;SDS011;12351;52.284;9.160;2023-06-22T16:41:53;19.30;;;16.50;;
24206;SDS011;12351;52.284;9.160;2023-06-22T16:44:41;18.90;;;16.90;;
24206;SDS011;12351;52.284;9.160;2023-06-22T16:47:29;19.13;;;17.13;;
24206;SDS011;12351;52.284;9.160;2023-06-22T16:50:17;19.67;;;17.60;;
24206;SDS011;12351;52.284;9.160;2023-06-22T16:53:05;20.63;;;17.97;;
24206;SDS011;12351;52.284;9.160;2023-06-22T16:55:54;20.07;;;17.30;;
24206;SDS011;12351;52.284;9.160;2023-06-22T16:58:42;19.90;;;17.17;;
24206;SDS011;12351;52.284;9.160;2023-06-22T17:01:33;18.60;;;16.50;;
24206;SDS011;12351;52.284;9.160;2023-06-22T17:04:23;18.53;;;16.63;;
24206;SDS011;12351;52.284;9.160;2023-06-22T17:07:13;19.90;;;16.97;;